Millers, Virginia
Current Conditions -  °F | °C
As of 9:54 AM on Sunday 21 Dec 2014 (Local Time) from KRIC Reporting Station
Overcast Overcast  
Wind Chill: 39°   Ceiling: 6500
Heat Index: 39°   Visibility: 10mi
Dew Point: 25°   Wind: 3mph
Humidity: 57%   Direction: 60°ENE
Pressure: 30.36"   Gusts: NA
Location:  37.4458°N, 77.3237°W
Report Text: KRIC 211454Z 06003KT 10SM OVC065 04/M04 A3036 RMK AO2 SLP286 T00391039 53013
Loading
Personal Weather Stations






























Interactive Weather Map New forecast layout! Learn more

10-Day Weather Forecast

Advertisements
Track Severe Weather on mobile